createdAt,value
2017-03-25T00:00:29.850Z,0
2017-03-25T00:01:10.564Z,0
2017-03-25T00:01:51.365Z,0
2017-03-25T00:02:31.995Z,0
2017-03-25T00:03:12.608Z,0
2017-03-25T00:03:53.409Z,0
2017-03-25T00:04:34.026Z,0
2017-03-25T00:05:14.649Z,0
2017-03-25T00:05:55.276Z,0
2017-03-25T00:06:36.002Z,0
2017-03-25T00:07:16.683Z,0
2017-03-25T00:07:57.273Z,0
2017-03-25T00:08:37.902Z,0
2017-03-25T00:09:18.531Z,0
2017-03-25T00:09:59.214Z,0
2017-03-25T00:10:39.831Z,0
2017-03-25T00:11:20.407Z,0
2017-03-25T00:12:00.991Z,0
2017-03-25T00:12:41.629Z,0
2017-03-25T00:13:22.240Z,0
2017-03-25T00:14:02.872Z,0
2017-03-25T00:14:43.623Z,0
2017-03-25T00:15:24.182Z,0
2017-03-25T00:16:04.777Z,0
2017-03-25T00:16:45.394Z,0
2017-03-25T00:17:26.001Z,0
2017-03-25T00:18:06.592Z,0
2017-03-25T00:18:47.209Z,0
2017-03-25T00:19:27.793Z,0
2017-03-25T00:20:08.399Z,0
2017-03-25T00:20:48.983Z,0
2017-03-25T00:21:29.593Z,0
2017-03-25T00:22:10.206Z,0
2017-03-25T00:22:50.806Z,0
2017-03-25T00:23:31.374Z,0
2017-03-25T00:24:11.960Z,0
2017-03-25T00:24:52.630Z,0
2017-03-25T00:25:33.249Z,0
2017-03-25T00:26:13.838Z,0
2017-03-25T00:26:54.466Z,0
2017-03-25T00:27:35.089Z,0
2017-03-25T00:28:15.687Z,0
2017-03-25T00:28:56.271Z,0
2017-03-25T00:29:36.874Z,0
2017-03-25T00:30:17.456Z,0
2017-03-25T00:30:58.033Z,0
2017-03-25T00:31:38.628Z,0
2017-03-25T00:32:19.221Z,0
2017-03-25T00:32:59.843Z,0
2017-03-25T00:33:40.627Z,0
2017-03-25T00:34:21.238Z,0
2017-03-25T00:35:01.992Z,0
2017-03-25T00:35:42.646Z,0
2017-03-25T00:36:23.378Z,0
2017-03-25T00:37:04.037Z,0
2017-03-25T00:37:44.788Z,0
2017-03-25T00:38:25.461Z,0
2017-03-25T00:39:06.150Z,0
2017-03-25T00:39:46.879Z,0
2017-03-25T00:40:27.582Z,0
2017-03-25T00:41:08.176Z,0
2017-03-25T00:41:48.811Z,0
2017-03-25T00:42:29.466Z,0
2017-03-25T00:43:10.112Z,0
2017-03-25T00:43:50.733Z,0
2017-03-25T00:44:31.364Z,0
2017-03-25T00:45:12.011Z,0
2017-03-25T00:45:52.570Z,0
2017-03-25T00:46:33.205Z,0
2017-03-25T00:47:13.810Z,0
2017-03-25T00:47:54.405Z,0
2017-03-25T00:48:35.208Z,0
2017-03-25T00:49:15.812Z,0
2017-03-25T00:49:56.473Z,0
2017-03-25T00:50:37.073Z,0
2017-03-25T00:51:17.732Z,0
2017-03-25T00:51:58.341Z,0
2017-03-25T00:52:38.966Z,0
2017-03-25T00:53:19.631Z,0
2017-03-25T00:54:00.278Z,0
2017-03-25T00:54:40.925Z,0
2017-03-25T00:55:21.528Z,0
2017-03-25T00:56:02.143Z,0
2017-03-25T00:56:42.776Z,0
2017-03-25T00:57:23.368Z,0
2017-03-25T00:58:03.958Z,0
2017-03-25T00:58:44.534Z,0
2017-03-25T00:59:25.123Z,0
2017-03-25T01:00:05.720Z,0
2017-03-25T01:00:46.300Z,0
2017-03-25T01:01:26.979Z,0
2017-03-25T01:02:07.557Z,0
2017-03-25T01:02:48.161Z,0
2017-03-25T01:03:28.742Z,0
2017-03-25T01:04:09.382Z,0
2017-03-25T01:04:49.978Z,0
2017-03-25T01:05:30.629Z,0
2017-03-25T01:06:11.231Z,0
2017-03-25T01:06:51.784Z,0
2017-03-25T01:07:32.397Z,0
2017-03-25T01:08:12.947Z,0
2017-03-25T01:08:53.593Z,0
2017-03-25T01:09:34.226Z,0
2017-03-25T01:10:14.827Z,0
2017-03-25T01:10:55.405Z,0
2017-03-25T01:11:36.014Z,0
2017-03-25T01:12:16.650Z,0
2017-03-25T01:12:57.245Z,0
2017-03-25T01:13:38.535Z,0
2017-03-25T01:14:19.094Z,0
2017-03-25T01:14:59.689Z,0
2017-03-25T01:15:40.255Z,0
2017-03-25T01:16:20.827Z,0
2017-03-25T01:17:01.396Z,0
2017-03-25T01:17:41.997Z,0
2017-03-25T01:18:22.576Z,0
2017-03-25T01:19:03.172Z,0
2017-03-25T01:19:43.721Z,0
2017-03-25T01:20:24.335Z,0
2017-03-25T01:21:04.912Z,0
2017-03-25T01:21:45.517Z,0
2017-03-25T01:22:26.111Z,0
2017-03-25T01:23:06.722Z,0
2017-03-25T01:23:47.393Z,0
2017-03-25T01:24:27.927Z,0
2017-03-25T01:25:08.520Z,0
2017-03-25T01:25:50.787Z,0
2017-03-25T01:26:31.409Z,0
2017-03-25T01:27:12.052Z,0
2017-03-25T01:27:52.754Z,0
2017-03-25T01:28:33.380Z,0
2017-03-25T01:29:14.024Z,0
2017-03-25T01:29:54.662Z,0
2017-03-25T01:30:35.503Z,0
2017-03-25T01:31:16.165Z,0
2017-03-25T01:31:56.732Z,0
2017-03-25T01:32:37.374Z,0
2017-03-25T01:33:17.970Z,0
2017-03-25T01:33:58.559Z,0
2017-03-25T01:34:39.176Z,0
2017-03-25T01:35:19.764Z,0
2017-03-25T01:36:00.432Z,0
2017-03-25T01:36:41.728Z,0
2017-03-25T01:37:22.323Z,0
2017-03-25T01:38:02.892Z,0
2017-03-25T01:38:43.542Z,0
2017-03-25T01:39:24.146Z,0
2017-03-25T01:40:04.762Z,0
2017-03-25T01:40:45.383Z,0
2017-03-25T01:41:26.018Z,0
2017-03-25T01:42:06.581Z,0
2017-03-25T01:42:47.155Z,0
2017-03-25T01:43:27.757Z,0
2017-03-25T01:44:08.381Z,0
2017-03-25T01:44:48.936Z,0
2017-03-25T01:45:29.527Z,0
2017-03-25T01:46:10.136Z,0
2017-03-25T01:46:50.770Z,0
2017-03-25T01:47:31.350Z,0
2017-03-25T01:48:11.933Z,0
2017-03-25T01:48:52.525Z,0
2017-03-25T01:49:33.153Z,0
2017-03-25T01:50:13.755Z,0
2017-03-25T01:50:54.353Z,0
2017-03-25T01:51:34.928Z,0
2017-03-25T01:52:15.588Z,0
2017-03-25T01:52:56.180Z,0
2017-03-25T01:53:36.754Z,0
2017-03-25T01:54:17.340Z,0
2017-03-25T01:54:57.933Z,0
2017-03-25T01:55:38.528Z,0
2017-03-25T01:56:19.100Z,0
2017-03-25T01:56:59.648Z,0
2017-03-25T01:57:40.217Z,0
2017-03-25T01:58:20.798Z,0
2017-03-25T01:59:01.378Z,0
2017-03-25T01:59:41.972Z,0
2017-03-25T02:00:22.563Z,0
2017-03-25T02:01:03.159Z,0
2017-03-25T02:01:43.766Z,0
2017-03-25T02:02:24.346Z,0
2017-03-25T02:03:05.010Z,0
2017-03-25T02:03:45.654Z,0
2017-03-25T02:04:26.253Z,0
2017-03-25T02:05:06.858Z,0
2017-03-25T02:05:47.500Z,0
2017-03-25T02:06:28.091Z,0
2017-03-25T02:07:08.682Z,0
2017-03-25T02:07:49.353Z,0
2017-03-25T02:08:29.961Z,0
2017-03-25T02:09:10.542Z,0
2017-03-25T02:09:51.117Z,0
2017-03-25T02:10:31.736Z,0
2017-03-25T02:11:12.346Z,0
2017-03-25T02:11:52.962Z,0
2017-03-25T02:12:33.557Z,0
2017-03-25T02:13:14.137Z,0
2017-03-25T02:13:54.706Z,0
2017-03-25T02:14:35.323Z,0
2017-03-25T02:15:15.917Z,0
2017-03-25T02:15:56.506Z,0
2017-03-25T02:16:37.084Z,0
2017-03-25T02:17:17.651Z,0
2017-03-25T02:17:58.232Z,0
2017-03-25T02:18:38.863Z,0
2017-03-25T02:19:19.479Z,0
2017-03-25T02:20:00.036Z,0
2017-03-25T02:20:40.620Z,0
2017-03-25T02:21:21.243Z,0
2017-03-25T02:22:01.841Z,0
2017-03-25T02:22:42.429Z,0
2017-03-25T02:23:23.031Z,0
2017-03-25T02:24:03.610Z,0
2017-03-25T02:24:44.196Z,0
2017-03-25T02:25:24.801Z,0
2017-03-25T02:26:05.429Z,0
2017-03-25T02:26:46.003Z,0
2017-03-25T02:27:26.607Z,0
2017-03-25T02:28:07.191Z,0
2017-03-25T02:28:47.792Z,0
2017-03-25T02:29:28.449Z,0
2017-03-25T02:30:09.018Z,0
2017-03-25T02:30:49.653Z,0
2017-03-25T02:31:30.285Z,0
2017-03-25T02:32:10.866Z,0
2017-03-25T02:32:51.439Z,0
2017-03-25T02:33:32.086Z,0
2017-03-25T02:34:12.713Z,0
2017-03-25T02:34:53.294Z,0
2017-03-25T02:35:33.854Z,0
2017-03-25T02:36:14.439Z,0
2017-03-25T02:36:55.014Z,0
2017-03-25T02:37:35.646Z,0
2017-03-25T02:38:16.226Z,0
2017-03-25T02:38:56.900Z,0
2017-03-25T02:39:37.478Z,0
2017-03-25T02:40:18.114Z,0
2017-03-25T02:40:58.707Z,0
2017-03-25T02:41:39.290Z,0
2017-03-25T02:42:19.879Z,0
2017-03-25T02:43:00.501Z,0
2017-03-25T02:43:41.044Z,0
2017-03-25T02:44:21.617Z,0
2017-03-25T02:45:02.199Z,0
2017-03-25T02:45:42.815Z,0
2017-03-25T02:46:23.423Z,0
2017-03-25T02:47:04.084Z,0
2017-03-25T02:47:44.646Z,0
2017-03-25T02:48:25.263Z,0
2017-03-25T02:49:05.857Z,0
2017-03-25T02:49:46.447Z,0
2017-03-25T02:50:27.031Z,0
2017-03-25T02:51:07.640Z,0
2017-03-25T02:51:48.189Z,0
2017-03-25T02:52:28.836Z,0
2017-03-25T02:53:09.503Z,0
2017-03-25T02:53:50.072Z,0
2017-03-25T02:54:30.654Z,0
2017-03-25T02:55:11.240Z,0
2017-03-25T02:55:51.823Z,0
2017-03-25T02:56:32.410Z,0
2017-03-25T02:57:12.994Z,0
2017-03-25T02:57:53.607Z,0
2017-03-25T02:58:34.239Z,0
2017-03-25T02:59:14.811Z,0
2017-03-25T02:59:55.403Z,0
2017-03-25T03:00:36.014Z,0
2017-03-25T03:01:16.624Z,0
2017-03-25T03:01:57.206Z,0
2017-03-25T03:02:37.789Z,0
2017-03-25T03:03:18.369Z,0
2017-03-25T03:03:58.965Z,0
2017-03-25T03:04:39.600Z,0
2017-03-25T03:05:20.221Z,0
2017-03-25T03:06:00.878Z,0
2017-03-25T03:06:41.470Z,0
2017-03-25T03:07:22.040Z,0
2017-03-25T03:08:02.620Z,0
2017-03-25T03:08:43.191Z,0
2017-03-25T03:09:23.795Z,0
2017-03-25T03:10:04.398Z,0
2017-03-25T03:10:45.000Z,0
2017-03-25T03:11:25.588Z,0
2017-03-25T03:12:06.160Z,0
2017-03-25T03:12:46.755Z,0
2017-03-25T03:13:27.333Z,0
2017-03-25T03:14:07.911Z,0
2017-03-25T03:14:48.497Z,0
2017-03-25T03:15:29.135Z,0
2017-03-25T03:16:09.714Z,0
2017-03-25T03:16:50.332Z,0
2017-03-25T03:17:30.951Z,0
2017-03-25T03:18:11.580Z,0
2017-03-25T03:18:52.177Z,0
2017-03-25T03:19:32.798Z,0
2017-03-25T03:20:13.435Z,0
2017-03-25T03:20:54.029Z,0
2017-03-25T03:21:34.662Z,0
2017-03-25T03:22:15.234Z,0
2017-03-25T03:22:55.809Z,0
2017-03-25T03:23:36.393Z,0
2017-03-25T03:24:16.987Z,0
2017-03-25T03:24:57.583Z,0
2017-03-25T03:25:38.157Z,0
2017-03-25T03:26:18.739Z,0
2017-03-25T03:26:59.371Z,0
2017-03-25T03:27:39.955Z,0
2017-03-25T03:28:20.550Z,0
2017-03-25T03:29:01.190Z,0
2017-03-25T03:29:41.761Z,0
2017-03-25T03:30:22.328Z,0
2017-03-25T03:31:02.938Z,0
2017-03-25T03:31:43.521Z,0
2017-03-25T03:32:24.115Z,0
2017-03-25T03:33:04.735Z,0
2017-03-25T03:33:45.426Z,0
2017-03-25T03:34:26.032Z,0
2017-03-25T03:35:06.613Z,0
2017-03-25T03:35:47.205Z,0
2017-03-25T03:36:27.788Z,0
2017-03-25T03:37:08.372Z,0
2017-03-25T03:37:48.978Z,0
2017-03-25T03:38:29.581Z,0
2017-03-25T03:39:10.175Z,0
2017-03-25T03:39:50.740Z,0
2017-03-25T03:40:31.380Z,0
2017-03-25T03:41:11.935Z,0
2017-03-25T03:41:52.532Z,0
2017-03-25T03:42:33.123Z,0
2017-03-25T03:43:13.702Z,0
2017-03-25T03:43:54.284Z,0
2017-03-25T03:44:34.880Z,0
2017-03-25T03:45:15.539Z,0
2017-03-25T03:45:56.103Z,0
2017-03-25T03:46:36.691Z,0
2017-03-25T03:47:17.287Z,0
2017-03-25T03:47:57.949Z,0
2017-03-25T03:48:38.520Z,0
2017-03-25T03:49:19.136Z,0
2017-03-25T03:49:59.740Z,0
2017-03-25T03:50:40.349Z,0
2017-03-25T03:51:20.926Z,0
2017-03-25T03:52:01.513Z,0
2017-03-25T03:52:42.092Z,0
2017-03-25T03:53:22.674Z,0
2017-03-25T03:54:03.270Z,0
2017-03-25T03:54:43.853Z,0
2017-03-25T03:55:24.432Z,0
2017-03-25T03:56:05.025Z,0
2017-03-25T03:56:45.615Z,0
2017-03-25T03:57:26.228Z,0
2017-03-25T03:58:06.776Z,0
2017-03-25T03:58:47.353Z,0
2017-03-25T03:59:27.919Z,0
2017-03-25T04:00:08.526Z,0
2017-03-25T04:00:49.113Z,0
2017-03-25T04:01:29.721Z,0
2017-03-25T04:02:10.312Z,0
2017-03-25T04:02:50.889Z,0
2017-03-25T04:03:31.496Z,0
2017-03-25T04:04:12.210Z,0
2017-03-25T04:04:52.834Z,0
2017-03-25T04:05:33.477Z,0
2017-03-25T04:06:14.043Z,0
2017-03-25T04:06:54.637Z,0
2017-03-25T04:07:35.278Z,0
2017-03-25T04:08:15.854Z,0
2017-03-25T04:08:56.448Z,0
2017-03-25T04:09:37.040Z,0
2017-03-25T04:10:17.664Z,0
2017-03-25T04:10:58.245Z,0
2017-03-25T04:11:38.858Z,0
2017-03-25T04:12:19.492Z,0
2017-03-25T04:13:00.078Z,0
2017-03-25T04:13:40.649Z,0
2017-03-25T04:14:21.280Z,0
2017-03-25T04:15:01.866Z,0
2017-03-25T04:15:42.474Z,0
2017-03-25T04:16:23.071Z,0
2017-03-25T04:17:03.676Z,0
2017-03-25T04:17:44.257Z,0
2017-03-25T04:18:24.824Z,0
2017-03-25T04:19:05.418Z,0
2017-03-25T04:19:46.021Z,0
2017-03-25T04:20:26.624Z,0
2017-03-25T04:21:07.230Z,0
2017-03-25T04:21:47.823Z,0
2017-03-25T04:22:28.440Z,0
2017-03-25T04:23:09.090Z,0
2017-03-25T04:23:49.678Z,0
2017-03-25T04:24:30.251Z,0
2017-03-25T04:25:10.838Z,0
2017-03-25T04:25:51.422Z,0
2017-03-25T04:26:32.005Z,0
2017-03-25T04:27:12.584Z,0
2017-03-25T04:27:53.193Z,0
2017-03-25T04:28:33.784Z,0
2017-03-25T04:29:14.388Z,0
2017-03-25T04:29:55.076Z,0
2017-03-25T04:30:35.605Z,4
2017-03-25T04:31:16.176Z,4
2017-03-25T04:31:56.820Z,4
2017-03-25T04:32:37.412Z,4
2017-03-25T04:33:17.992Z,0
2017-03-25T04:33:58.726Z,4
2017-03-25T04:34:39.334Z,4
2017-03-25T04:35:19.975Z,4
2017-03-25T04:36:00.603Z,4
2017-03-25T04:36:41.229Z,4
2017-03-25T04:37:21.837Z,8
2017-03-25T04:38:02.445Z,4
2017-03-25T04:38:43.029Z,8
2017-03-25T04:39:23.627Z,8
2017-03-25T04:40:04.206Z,8
2017-03-25T04:40:44.835Z,8
2017-03-25T04:41:25.425Z,12
2017-03-25T04:42:05.997Z,12
2017-03-25T04:42:46.591Z,12
2017-03-25T04:43:27.202Z,16
2017-03-25T04:44:07.797Z,20
2017-03-25T04:44:48.373Z,20
2017-03-25T04:45:28.969Z,20
2017-03-25T04:46:09.573Z,28
2017-03-25T04:46:50.135Z,28
2017-03-25T04:47:30.725Z,28
2017-03-25T04:48:11.337Z,32
2017-03-25T04:48:51.936Z,36
2017-03-25T04:49:32.534Z,36
2017-03-25T04:50:13.166Z,40
2017-03-25T04:50:53.756Z,44
2017-03-25T04:51:34.318Z,48
2017-03-25T04:52:14.894Z,52
2017-03-25T04:52:55.494Z,56
2017-03-25T04:53:36.082Z,60
2017-03-25T04:54:16.662Z,56
2017-03-25T04:54:57.229Z,60
2017-03-25T04:55:37.805Z,64
2017-03-25T04:56:18.411Z,68
2017-03-25T04:56:59.022Z,72
2017-03-25T04:57:39.621Z,72
2017-03-25T04:58:20.206Z,76
2017-03-25T04:59:00.779Z,80
2017-03-25T04:59:41.363Z,84
2017-03-25T05:00:21.995Z,88
2017-03-25T05:01:02.554Z,92
2017-03-25T05:01:43.193Z,100
2017-03-25T05:02:23.773Z,108
2017-03-25T05:03:04.366Z,112
2017-03-25T05:03:44.992Z,120
2017-03-25T05:04:25.619Z,128
2017-03-25T05:05:06.226Z,136
2017-03-25T05:05:46.824Z,148
2017-03-25T05:06:27.430Z,160
2017-03-25T05:07:07.992Z,172
2017-03-25T05:07:48.654Z,184
2017-03-25T05:08:29.289Z,200
2017-03-25T05:09:09.877Z,212
2017-03-25T05:09:50.447Z,228
2017-03-25T05:10:31.058Z,248
2017-03-25T05:11:11.650Z,264
2017-03-25T05:11:52.255Z,280
2017-03-25T05:12:32.897Z,300
2017-03-25T05:13:13.486Z,312
2017-03-25T05:13:54.124Z,324
2017-03-25T05:14:34.731Z,340
2017-03-25T05:15:15.298Z,356
2017-03-25T05:15:55.883Z,376
2017-03-25T05:16:36.479Z,392
2017-03-25T05:17:17.063Z,408
2017-03-25T05:17:57.671Z,432
2017-03-25T05:18:38.233Z,452
2017-03-25T05:19:18.811Z,472
2017-03-25T05:19:59.407Z,492
2017-03-25T05:20:40.003Z,516
2017-03-25T05:21:20.654Z,536
2017-03-25T05:22:01.230Z,560
2017-03-25T05:22:41.851Z,580
2017-03-25T05:23:22.432Z,604
2017-03-25T05:24:03.016Z,624
2017-03-25T05:24:43.597Z,640
2017-03-25T05:25:24.184Z,660
2017-03-25T05:26:04.819Z,680
2017-03-25T05:26:45.392Z,692
2017-03-25T05:27:26.001Z,704
2017-03-25T05:28:06.603Z,720
2017-03-25T05:28:47.191Z,732
2017-03-25T05:29:27.785Z,744
2017-03-25T05:30:08.355Z,752
2017-03-25T05:30:48.927Z,756
2017-03-25T05:31:29.505Z,764
2017-03-25T05:32:10.090Z,764
2017-03-25T05:32:50.704Z,764
2017-03-25T05:33:31.300Z,764
2017-03-25T05:34:11.887Z,760
2017-03-25T05:34:52.473Z,756
2017-03-25T05:35:33.064Z,748
2017-03-25T05:36:13.636Z,752
2017-03-25T05:36:54.204Z,752
2017-03-25T05:37:34.788Z,756
2017-03-25T05:38:15.367Z,760
2017-03-25T05:38:55.963Z,764
2017-03-25T05:39:36.564Z,772
2017-03-25T05:40:17.157Z,780
2017-03-25T05:40:57.770Z,788
2017-03-25T05:41:38.344Z,792
2017-03-25T05:42:18.925Z,800
2017-03-25T05:42:59.573Z,804
2017-03-25T05:43:40.142Z,808
2017-03-25T05:44:20.718Z,812
2017-03-25T05:45:01.318Z,812
2017-03-25T05:45:41.968Z,816
2017-03-25T05:46:22.572Z,824
2017-03-25T05:47:03.176Z,828
2017-03-25T05:47:43.761Z,844
2017-03-25T05:48:24.368Z,856
2017-03-25T05:49:04.961Z,872
2017-03-25T05:49:45.530Z,892
2017-03-25T05:50:26.103Z,916
2017-03-25T05:51:06.689Z,940
2017-03-25T05:51:47.275Z,968
2017-03-25T05:52:27.849Z,1000
2017-03-25T05:53:08.427Z,1024
2017-03-25T05:53:49.022Z,1048
2017-03-25T05:54:29.589Z,1068
2017-03-25T05:55:10.186Z,1096
2017-03-25T05:55:50.765Z,1124
2017-03-25T05:56:31.326Z,1160
2017-03-25T05:57:11.897Z,1208
2017-03-25T05:57:52.488Z,1260
2017-03-25T05:58:33.092Z,1312
2017-03-25T05:59:13.714Z,1364
2017-03-25T05:59:54.373Z,1420
2017-03-25T06:00:34.949Z,1476
2017-03-25T06:01:15.556Z,1524
2017-03-25T06:01:56.167Z,1576
2017-03-25T06:02:36.788Z,1624
2017-03-25T06:03:17.358Z,1668
2017-03-25T06:03:57.962Z,1720
2017-03-25T06:04:38.572Z,1760
2017-03-25T06:05:19.203Z,1800
2017-03-25T06:05:59.729Z,1836
2017-03-25T06:06:40.322Z,1876
2017-03-25T06:07:20.902Z,1908
2017-03-25T06:08:01.470Z,1952
2017-03-25T06:08:42.072Z,1992
2017-03-25T06:09:22.676Z,2032
2017-03-25T06:10:03.262Z,2068
2017-03-25T06:10:43.839Z,2112
2017-03-25T06:11:24.430Z,2156
2017-03-25T06:12:05.069Z,2200
2017-03-25T06:12:45.652Z,2240
2017-03-25T06:13:26.257Z,2284
2017-03-25T06:14:06.840Z,2316
2017-03-25T06:14:47.423Z,2344
2017-03-25T06:15:28.031Z,2356
2017-03-25T06:16:08.708Z,2360
2017-03-25T06:16:49.317Z,2364
2017-03-25T06:17:29.965Z,2356
2017-03-25T06:18:10.552Z,2348
2017-03-25T06:18:51.145Z,2344
2017-03-25T06:19:31.735Z,2344
2017-03-25T06:20:12.326Z,2344
2017-03-25T06:20:52.938Z,2344
2017-03-25T06:21:33.590Z,2344
2017-03-25T06:22:14.228Z,2352
2017-03-25T06:22:54.808Z,2376
2017-03-25T06:23:35.516Z,2412
2017-03-25T06:24:16.145Z,2476
2017-03-25T06:24:56.739Z,2556
2017-03-25T06:25:37.370Z,2660
2017-03-25T06:26:17.933Z,2792
2017-03-25T06:26:58.504Z,2956
2017-03-25T06:27:39.073Z,3140
2017-03-25T06:28:19.683Z,3324
2017-03-25T06:29:00.275Z,3520
2017-03-25T06:29:41.014Z,3712
2017-03-25T06:30:21.813Z,3916
2017-03-25T06:31:02.584Z,4108
2017-03-25T06:31:43.193Z,4304
2017-03-25T06:32:23.784Z,4488
2017-03-25T06:33:04.378Z,4656
2017-03-25T06:33:44.965Z,4812
2017-03-25T06:34:25.562Z,4976
2017-03-25T06:35:06.149Z,5156
2017-03-25T06:35:46.763Z,5356
2017-03-25T06:36:27.357Z,5552
2017-03-25T06:37:07.943Z,5748
2017-03-25T06:37:48.540Z,5924
2017-03-25T06:38:29.101Z,6120
2017-03-25T06:39:09.701Z,6304
2017-03-25T06:39:50.301Z,6492
2017-03-25T06:40:30.901Z,6676
2017-03-25T06:41:11.604Z,6880
2017-03-25T06:41:52.216Z,7088
2017-03-25T06:42:32.815Z,7276
2017-03-25T06:43:13.421Z,7436
2017-03-25T06:43:54.006Z,7592
2017-03-25T06:44:34.787Z,7796
2017-03-25T06:45:15.369Z,8016
2017-03-25T06:45:56.058Z,8284
2017-03-25T06:46:36.610Z,8600
2017-03-25T06:47:17.218Z,8928
2017-03-25T06:47:57.868Z,9224
2017-03-25T06:48:38.443Z,9492
2017-03-25T06:49:19.031Z,9792
2017-03-25T06:49:59.637Z,10172
2017-03-25T06:50:40.203Z,10716
2017-03-25T06:51:20.773Z,11176
2017-03-25T06:52:01.342Z,11828
2017-03-25T06:52:41.937Z,12532
2017-03-25T06:53:22.526Z,12608
2017-03-25T06:54:03.124Z,12012
2017-03-25T06:54:43.716Z,13120
2017-03-25T06:55:24.303Z,14092
2017-03-25T06:56:04.887Z,14328
2017-03-25T06:56:45.472Z,14388
2017-03-25T06:57:26.061Z,13928
2017-03-25T06:58:06.646Z,13520
2017-03-25T06:58:47.222Z,12956
2017-03-25T06:59:27.812Z,12240
2017-03-25T07:00:08.382Z,11076
2017-03-25T07:00:48.958Z,10876
2017-03-25T07:01:29.559Z,11344
2017-03-25T07:02:10.168Z,11900
2017-03-25T07:02:50.750Z,13352
2017-03-25T07:03:31.368Z,15700
2017-03-25T07:04:11.955Z,14908
2017-03-25T07:04:52.585Z,12888
2017-03-25T07:05:33.177Z,12012
2017-03-25T07:06:13.746Z,12116
2017-03-25T07:06:54.327Z,12812
2017-03-25T07:07:35.009Z,13588
2017-03-25T07:08:15.582Z,14244
2017-03-25T07:08:56.188Z,13380
2017-03-25T07:09:36.794Z,12548
2017-03-25T07:10:17.391Z,12548
2017-03-25T07:10:57.985Z,15000
2017-03-25T07:11:38.583Z,14480
2017-03-25T07:12:19.233Z,14296
2017-03-25T07:13:00.420Z,16384
2017-03-25T07:13:41.032Z,20128
2017-03-25T07:14:21.627Z,20864
2017-03-25T07:15:02.255Z,21248
2017-03-25T07:15:48.194Z,18272
2017-03-25T07:16:33.621Z,18880
2017-03-25T07:17:14.229Z,26976
2017-03-25T07:17:54.832Z,33664
2017-03-25T07:18:35.479Z,35232
2017-03-25T07:19:16.088Z,34656
2017-03-25T07:19:56.657Z,37152
2017-03-25T07:20:37.263Z,36288
2017-03-25T07:21:17.883Z,34208
2017-03-25T07:21:58.459Z,34752
2017-03-25T07:22:39.062Z,35456
2017-03-25T07:23:19.922Z,33440
2017-03-25T07:24:00.871Z,31968
2017-03-25T07:24:42.454Z,31360
2017-03-25T07:25:23.069Z,29504
2017-03-25T07:26:03.679Z,27264
2017-03-25T07:26:44.279Z,28480
2017-03-25T07:27:24.860Z,29376
2017-03-25T07:28:05.463Z,30336
2017-03-25T07:28:46.041Z,31008
2017-03-25T07:29:26.641Z,31136
2017-03-25T07:30:07.231Z,31200
2017-03-25T07:30:47.819Z,30240
2017-03-25T07:31:28.405Z,29472
2017-03-25T07:32:09.010Z,26336
2017-03-25T07:32:49.590Z,25568
2017-03-25T07:33:30.192Z,24128
2017-03-25T07:34:10.826Z,22848
2017-03-25T07:34:51.416Z,22304
2017-03-25T07:35:32.042Z,22944
2017-03-25T07:36:12.639Z,24256
2017-03-25T07:36:53.249Z,25216
2017-03-25T07:37:33.847Z,26016
2017-03-25T07:38:14.445Z,27936
2017-03-25T07:38:55.067Z,25856
2017-03-25T07:39:39.678Z,25280
2017-03-25T07:40:20.278Z,23072
2017-03-25T07:41:00.878Z,19488
2017-03-25T07:41:41.503Z,15816
2017-03-25T07:42:22.104Z,14032
2017-03-25T07:43:02.693Z,14004
2017-03-25T07:43:43.289Z,14280
2017-03-25T07:44:24.022Z,14256
2017-03-25T07:45:04.595Z,14300
2017-03-25T07:45:45.254Z,13348
2017-03-25T07:46:25.859Z,12352
2017-03-25T07:47:06.473Z,12100
2017-03-25T07:47:47.074Z,11848
2017-03-25T07:48:27.733Z,10572
2017-03-25T07:49:08.332Z,11708
2017-03-25T07:49:48.947Z,13024
2017-03-25T07:50:29.508Z,11756
2017-03-25T07:51:10.098Z,11404
2017-03-25T07:51:50.693Z,12212
2017-03-25T07:52:31.284Z,14484
2017-03-25T07:53:11.876Z,15872
2017-03-25T07:53:52.493Z,15696
2017-03-25T07:54:33.147Z,15188
2017-03-25T07:55:13.753Z,18400
2017-03-25T07:55:54.367Z,21280
2017-03-25T07:56:34.985Z,21216
2017-03-25T07:57:15.565Z,24384
2017-03-25T07:57:56.187Z,21632
2017-03-25T07:58:36.772Z,19840
2017-03-25T07:59:17.356Z,23232
2017-03-25T07:59:57.946Z,26688
2017-03-25T08:00:38.546Z,25152
2017-03-25T08:01:19.230Z,30912
2017-03-25T08:01:59.928Z,31424
2017-03-25T08:02:40.556Z,30688
2017-03-25T08:03:21.197Z,28128
2017-03-25T08:04:01.800Z,26624
2017-03-25T08:04:42.461Z,27168
2017-03-25T08:05:23.098Z,24000
2017-03-25T08:06:03.901Z,20896
2017-03-25T08:06:44.468Z,20672
2017-03-25T08:07:25.096Z,18656
2017-03-25T08:08:05.747Z,17792
2017-03-25T08:08:46.428Z,18336
2017-03-25T08:09:27.015Z,17184
2017-03-25T08:10:07.639Z,16012
2017-03-25T08:10:48.251Z,17056
2017-03-25T08:11:28.888Z,17312
2017-03-25T08:12:09.549Z,18048
2017-03-25T08:12:50.187Z,18336
2017-03-25T08:13:30.813Z,17152
2017-03-25T08:14:11.452Z,16256
2017-03-25T08:14:52.072Z,16352
2017-03-25T08:15:32.646Z,15064
2017-03-25T08:16:13.262Z,13968
2017-03-25T08:16:53.842Z,13468
2017-03-25T08:17:34.467Z,11704
2017-03-25T08:18:15.069Z,9780
2017-03-25T08:18:55.668Z,9300
2017-03-25T08:19:36.876Z,8628
2017-03-25T08:20:17.776Z,8816
2017-03-25T08:20:58.413Z,8584
2017-03-25T08:21:40.978Z,9228
2017-03-25T08:22:23.073Z,10928
2017-03-25T08:23:04.076Z,9496
2017-03-25T08:23:45.135Z,6584
2017-03-25T08:24:27.952Z,6204
2017-03-25T08:25:09.214Z,6592
2017-03-25T08:25:52.622Z,7400
2017-03-25T08:26:34.047Z,8520
2017-03-25T08:27:14.644Z,9832
2017-03-25T08:27:55.247Z,10792
2017-03-25T08:28:35.927Z,11756
2017-03-25T08:29:16.662Z,11740
2017-03-25T08:29:57.388Z,11672
2017-03-25T08:30:38.009Z,12676
2017-03-25T08:31:18.634Z,12952
2017-03-25T08:31:59.219Z,13044
2017-03-25T08:32:39.814Z,12536
2017-03-25T08:33:20.398Z,12180
2017-03-25T08:34:00.999Z,11836
2017-03-25T08:34:41.612Z,11588
2017-03-25T08:35:22.202Z,12508
2017-03-25T08:36:02.898Z,11564
2017-03-25T08:36:43.571Z,11116
2017-03-25T08:37:24.903Z,10744
2017-03-25T08:38:05.976Z,10576
2017-03-25T08:38:46.816Z,9644
2017-03-25T08:39:27.536Z,9280
2017-03-25T08:40:08.291Z,9332
2017-03-25T08:40:49.070Z,9720
2017-03-25T08:41:29.845Z,11040
2017-03-25T08:42:10.589Z,11564
2017-03-25T08:42:51.378Z,11380
2017-03-25T08:43:32.068Z,11740
2017-03-25T08:44:12.655Z,11316
2017-03-25T08:44:53.261Z,11544
2017-03-25T08:45:33.906Z,11560
2017-03-25T08:46:14.529Z,11736
2017-03-25T08:46:55.118Z,11252
2017-03-25T08:47:35.754Z,10788
2017-03-25T08:48:16.410Z,10588
2017-03-25T08:48:57.068Z,9088
2017-03-25T08:49:37.672Z,8572
2017-03-25T08:50:18.313Z,7976
2017-03-25T08:50:58.901Z,7936
2017-03-25T08:51:39.502Z,7928
2017-03-25T08:52:20.144Z,8192
2017-03-25T08:53:00.759Z,8384
2017-03-25T08:53:41.438Z,8520
2017-03-25T08:54:22.054Z,8180
2017-03-25T08:55:02.729Z,7776
2017-03-25T08:55:43.335Z,7412
2017-03-25T08:56:23.960Z,7056
2017-03-25T08:57:04.523Z,6744
2017-03-25T08:57:45.109Z,6464
2017-03-25T08:58:25.734Z,6248
2017-03-25T08:59:06.347Z,6136
2017-03-25T08:59:46.952Z,6104
2017-03-25T09:00:27.662Z,6084
2017-03-25T09:01:08.328Z,6032
2017-03-25T09:01:48.956Z,5956
2017-03-25T09:02:29.652Z,5904
2017-03-25T09:03:10.244Z,5840
2017-03-25T09:03:50.852Z,5912
2017-03-25T09:04:31.491Z,6068
2017-03-25T09:05:12.073Z,6268
2017-03-25T09:05:52.657Z,6488
2017-03-25T09:06:33.274Z,6684
2017-03-25T09:07:13.892Z,6924
2017-03-25T09:07:54.468Z,7164
2017-03-25T09:08:35.070Z,7324
2017-03-25T09:09:15.670Z,7368
2017-03-25T09:09:56.313Z,7392
2017-03-25T09:10:36.940Z,7292
2017-03-25T09:11:17.566Z,7112
2017-03-25T09:11:58.172Z,7004
2017-03-25T09:12:38.746Z,6936
2017-03-25T09:13:19.396Z,6912
2017-03-25T09:14:00.263Z,6900
2017-03-25T09:14:41.052Z,6968
2017-03-25T09:15:21.754Z,7064
2017-03-25T09:16:02.456Z,7104
2017-03-25T09:16:43.317Z,7128
2017-03-25T09:17:23.945Z,7184
2017-03-25T09:18:04.598Z,7212
2017-03-25T09:18:45.313Z,7264
2017-03-25T09:19:26.080Z,7336
2017-03-25T09:20:06.812Z,7404
2017-03-25T09:20:47.437Z,7460
2017-03-25T09:21:28.040Z,7492
2017-03-25T09:22:08.666Z,7512
2017-03-25T09:22:49.307Z,7576
2017-03-25T09:23:29.901Z,7628
2017-03-25T09:24:10.487Z,7644
2017-03-25T09:24:51.057Z,7612
2017-03-25T09:25:31.645Z,7568
2017-03-25T09:26:12.247Z,7468
2017-03-25T09:26:52.812Z,7372
2017-03-25T09:27:33.406Z,7296
2017-03-25T09:28:13.982Z,7180
2017-03-25T09:28:54.570Z,7064